Time;durP1;ratioP1;P1;durP2;ratioP2;P2;SDS_P1;SDS_P2;PMS_P1;PMS_P2;Temp;Humidity;BMP_temperature;BMP_pressure;BME280_temperature;BME280_humidity;BME280_pressure;Samples;Min_cycle;Max_cycle;Signal;HPM_P1;HPM_P2
2023/03/29 00:01:51;;;;;;;4.15;1.70;;;4.20;99.90;;;;;;4948186;29;20738;-44
2023/03/29 00:04:20;;;;;;;6.35;1.88;;;4.20;99.90;;;;;;4947933;29;20032;-45
2023/03/29 00:06:49;;;;;;;3.70;1.90;;;4.20;99.90;;;;;;4948024;29;20042;-45
2023/03/29 00:09:15;;;;;;;6.15;2.13;;;4.30;99.90;;;;;;4947840;28;20059;-45
2023/03/29 00:11:41;;;;;;;5.53;2.30;;;4.20;99.90;;;;;;4947597;29;20051;-45
2023/03/29 00:14:07;;;;;;;2.58;1.42;;;5.30;99.90;;;;;;4947672;29;20186;-45
2023/03/29 00:16:33;;;;;;;5.13;1.83;;;4.10;99.90;;;;;;4947041;28;20055;-45
2023/03/29 00:18:59;;;;;;;5.40;2.22;;;4.20;99.90;;;;;;4947943;29;20051;-44
2023/03/29 00:21:24;;;;;;;5.13;1.92;;;4.30;99.90;;;;;;4947543;29;20148;-45
2023/03/29 00:23:50;;;;;;;4.32;1.92;;;4.20;99.90;;;;;;4947844;28;20078;-45
2023/03/29 00:26:16;;;;;;;3.88;2.03;;;4.20;99.90;;;;;;4947780;29;20047;-44
2023/03/29 00:28:41;;;;;;;6.78;2.80;;;4.20;99.90;;;;;;4947779;29;20064;-44
2023/03/29 00:31:10;;;;;;;7.65;2.70;;;4.20;99.90;;;;;;4947824;29;20730;-43
2023/03/29 00:33:36;;;;;;;6.20;2.42;;;4.20;99.90;;;;;;4948063;28;20042;-44
2023/03/29 00:36:03;;;;;;;5.68;1.85;;;4.10;99.90;;;;;;4948220;28;20058;-45
2023/03/29 00:38:29;;;;;;;3.85;2.15;;;4.30;99.90;;;;;;4948060;28;20484;-45
2023/03/29 00:40:55;;;;;;;6.38;2.47;;;4.10;99.90;;;;;;4948026;28;20047;-44
2023/03/29 00:43:21;;;;;;;4.95;2.10;;;4.20;99.90;;;;;;4947664;28;20054;-44
2023/03/29 00:45:47;;;;;;;4.70;2.05;;;4.20;99.90;;;;;;4951045;28;20573;-44
2023/03/29 00:48:16;;;;;;;6.65;2.95;;;4.20;99.90;;;;;;4951327;28;20043;-45
2023/03/29 00:51:04;;;;;;;5.20;3.25;;;4.30;99.90;;;;;;4951486;29;20101;-45
2023/03/29 00:53:34;;;;;;;7.43;2.83;;;4.40;99.90;;;;;;4951229;29;20079;-45
2023/03/29 00:56:11;;;;;;;4.75;2.20;;;4.30;99.90;;;;;;4951419;28;20039;-45
2023/03/29 00:58:58;;;;;;;4.68;2.70;;;4.30;99.90;;;;;;4950715;28;20055;-45
2023/03/29 01:01:45;;;;;;;5.38;2.47;;;4.40;99.90;;;;;;4950986;29;20079;-45
2023/03/29 01:04:23;;;;;;;3.97;2.13;;;4.40;99.90;;;;;;4951201;28;20051;-44
2023/03/29 01:07:16;;;;;;;4.57;2.60;;;4.50;99.90;;;;;;4951397;29;20044;-45
2023/03/29 01:09:46;;;;;;;6.82;2.65;;;4.30;99.90;;;;;;4951148;28;20047;-45
2023/03/29 01:12:15;;;;;;;5.13;2.67;;;4.30;99.90;;;;;;4965776;28;20769;-45
2023/03/29 01:14:47;;;;;;;6.40;2.85;;;4.40;99.90;;;;;;4951535;28;20047;-45
2023/03/29 01:17:13;;;;;;;7.90;2.97;;;4.50;99.90;;;;;;4951168;28;20079;-46
2023/03/29 01:19:57;;;;;;;7.05;3.13;;;4.30;99.90;;;;;;4951321;28;20055;-45
2023/03/29 01:22:32;;;;;;;8.02;3.10;;;4.40;99.90;;;;;;4950874;28;20049;-45
2023/03/29 01:25:33;;;;;;;5.68;2.38;;;4.50;99.90;;;;;;4950743;28;20490;-46
2023/03/29 01:28:08;;;;;;;6.65;3.22;;;4.50;99.90;;;;;;4950721;28;20157;-44
2023/03/29 01:31:07;;;;;;;6.70;3.28;;;4.30;99.90;;;;;;4950674;28;20039;-46
2023/03/29 01:33:39;;;;;;;5.85;3.28;;;4.60;99.90;;;;;;4950462;28;20051;-45
2023/03/29 01:36:06;;;;;;;9.38;3.08;;;4.40;99.90;;;;;;4950604;28;20090;-45
2023/03/29 01:38:49;;;;;;;6.97;3.28;;;4.50;99.90;;;;;;4950033;28;20745;-45
2023/03/29 01:41:15;;;;;;;6.55;3.55;;;4.50;99.90;;;;;;4950086;28;20573;-45
2023/03/29 01:43:50;;;;;;;7.38;3.42;;;4.40;99.90;;;;;;4950136;29;20045;-45
2023/03/29 01:46:33;;;;;;;6.47;3.22;;;4.50;99.90;;;;;;4949427;28;20062;-45
2023/03/29 01:49:04;;;;;;;6.50;3.65;;;4.50;99.90;;;;;;4949695;28;20053;-46
2023/03/29 01:51:36;;;;;;;9.25;3.45;;;4.40;99.90;;;;;;4950039;28;20771;-45
2023/03/29 01:54:10;;;;;;;5.55;3.13;;;4.30;99.90;;;;;;4949916;28;20045;-44
2023/03/29 01:56:39;;;;;;;6.75;3.08;;;4.40;99.90;;;;;;4950121;29;20175;-45
2023/03/29 01:59:10;;;;;;;7.88;3.92;;;4.50;99.90;;;;;;4949953;28;20047;-44
2023/03/29 02:01:47;;;;;;;6.45;3.30;;;4.30;99.90;;;;;;4950145;29;20091;-44
2023/03/29 02:04:17;;;;;;;7.18;3.58;;;4.60;99.90;;;;;;4964660;28;20602;-44
2023/03/29 02:06:44;;;;;;;7.63;3.40;;;4.40;99.90;;;;;;4950154;29;20097;-44
2023/03/29 02:09:11;;;;;;;10.82;3.63;;;4.50;99.90;;;;;;4949926;29;20043;-45
2023/03/29 02:11:39;;;;;;;8.52;3.65;;;4.50;99.90;;;;;;4949744;28;20058;-46
2023/03/29 02:14:06;;;;;;;8.93;3.97;;;4.40;99.90;;;;;;4949392;29;20035;-45
2023/03/29 02:16:38;;;;;;;8.40;3.83;;;4.50;99.90;;;;;;4949467;28;20062;-44
2023/03/29 02:19:06;;;;;;;6.63;4.03;;;5.80;99.90;;;;;;4949283;29;20058;-45
2023/03/29 02:21:32;;;;;;;5.80;3.72;;;4.40;99.90;;;;;;4950317;28;20443;-44
2023/03/29 02:24:02;;;;;;;9.55;4.20;;;5.00;99.90;;;;;;4950206;29;20085;-43
2023/03/29 02:26:28;;;;;;;10.13;4.43;;;4.50;99.90;;;;;;4950009;29;20071;-45
2023/03/29 02:28:54;;;;;;;7.90;4.65;;;4.50;99.90;;;;;;4950182;29;20465;-44
2023/03/29 02:31:46;;;;;;;8.43;4.78;;;4.50;99.90;;;;;;4950256;28;20093;-44
2023/03/29 02:34:15;;;;;;;7.50;4.63;;;4.50;99.90;;;;;;4950329;28;20046;-45
2023/03/29 02:36:52;;;;;;;8.38;4.45;;;4.40;99.90;;;;;;4949519;29;20573;-44
2023/03/29 02:39:20;;;;;;;10.50;4.53;;;4.70;99.90;;;;;;4949891;28;20047;-44
2023/03/29 02:41:49;;;;;;;9.65;5.03;;;4.50;99.90;;;;;;4949638;28;20129;-45
2023/03/29 02:44:21;;;;;;;7.70;5.03;;;5.60;99.90;;;;;;4949393;28;20039;-45
2023/03/29 02:46:54;;;;;;;9.57;5.07;;;4.60;99.90;;;;;;4949565;29;20059;-44
2023/03/29 02:49:20;;;;;;;6.78;5.25;;;4.60;99.90;;;;;;4949528;28;20130;-44
2023/03/29 02:51:48;;;;;;;9.80;6.00;;;4.60;99.90;;;;;;4949430;29;20695;-44
2023/03/29 02:54:20;;;;;;;10.68;5.47;;;4.50;99.90;;;;;;4949894;28;20053;-44
2023/03/29 02:57:13;;;;;;;7.93;5.30;;;4.50;99.90;;;;;;4949681;29;20047;-44
2023/03/29 02:59:42;;;;;;;10.50;6.10;;;4.70;99.90;;;;;;4951714;28;20051;-45
2023/03/29 03:02:08;;;;;;;11.85;7.63;;;4.60;99.90;;;;;;4949951;28;20367;-46
2023/03/29 03:04:34;;;;;;;8.80;5.63;;;4.70;99.90;;;;;;4949917;28;20047;-45
2023/03/29 03:07:00;;;;;;;11.13;6.55;;;4.50;99.90;;;;;;4949013;28;20046;-45
2023/03/29 03:09:27;;;;;;;11.02;6.68;;;4.60;99.90;;;;;;4949932;28;20126;-45
2023/03/29 03:11:52;;;;;;;10.65;7.35;;;4.60;99.90;;;;;;4949899;28;20090;-46
2023/03/29 03:14:21;;;;;;;10.18;7.35;;;4.60;99.90;;;;;;4949763;29;20047;-44
2023/03/29 03:16:48;;;;;;;11.60;7.80;;;4.70;99.90;;;;;;4949521;28;20138;-45
2023/03/29 03:19:14;;;;;;;12.38;7.72;;;4.70;99.90;;;;;;4949614;29;20834;-45
2023/03/29 03:21:39;;;;;;;12.05;7.90;;;4.60;99.90;;;;;;4949402;28;20043;-44
2023/03/29 03:24:06;;;;;;;17.98;9.10;;;4.70;99.90;;;;;;4949275;28;20051;-44
2023/03/29 03:26:32;;;;;;;14.07;8.27;;;4.80;99.90;;;;;;4949406;28;20111;-45
2023/03/29 03:28:58;;;;;;;13.98;8.63;;;4.60;99.90;;;;;;4949316;29;20525;-44
2023/03/29 03:31:24;;;;;;;13.23;9.70;;;4.70;99.90;;;;;;4949308;28;20086;-45
2023/03/29 03:33:49;;;;;;;16.15;10.07;;;4.80;99.90;;;;;;4949333;29;20102;-45
2023/03/29 03:36:15;;;;;;;14.13;9.35;;;4.70;99.90;;;;;;4949385;29;20133;-47
2023/03/29 03:38:42;;;;;;;18.20;9.68;;;4.60;99.90;;;;;;4949048;28;20075;-45
2023/03/29 03:41:08;;;;;;;14.25;9.38;;;5.20;99.90;;;;;;4948728;28;20248;-44
2023/03/29 03:43:34;;;;;;;15.68;9.68;;;6.00;99.90;;;;;;4948756;29;20142;-45
2023/03/29 03:46:00;;;;;;;16.23;10.05;;;4.80;99.90;;;;;;4948841;29;20162;-45
2023/03/29 03:48:26;;;;;;;18.98;10.00;;;4.70;99.90;;;;;;4948760;28;20050;-44
2023/03/29 03:50:54;;;;;;;14.98;9.93;;;4.80;99.90;;;;;;4948884;28;20047;-45
2023/03/29 03:53:21;;;;;;;18.13;10.18;;;4.70;99.90;;;;;;4949171;28;20043;-46
2023/03/29 03:55:48;;;;;;;15.10;10.48;;;4.70;99.90;;;;;;4948546;28;20233;-45
2023/03/29 03:58:14;;;;;;;16.23;11.13;;;4.70;99.90;;;;;;4949036;29;20043;-44
2023/03/29 04:00:40;;;;;;;14.52;9.90;;;4.80;99.90;;;;;;4949450;28;20047;-43
2023/03/29 04:03:06;;;;;;;16.75;10.30;;;4.70;99.90;;;;;;4949484;28;20051;-45
2023/03/29 04:05:32;;;;;;;20.10;11.45;;;4.70;99.90;;;;;;4949346;28;20047;-44
2023/03/29 04:07:59;;;;;;;17.60;11.20;;;6.10;99.90;;;;;;4948915;28;20031;-45
2023/03/29 04:10:24;;;;;;;17.08;10.13;;;4.80;99.90;;;;;;4948562;28;20036;-46
2023/03/29 04:12:50;;;;;;;16.15;10.60;;;4.80;99.90;;;;;;4948228;28;20086;-44
2023/03/29 04:15:16;;;;;;;17.67;10.48;;;4.70;99.90;;;;;;4948502;28;20039;-44
2023/03/29 04:17:42;;;;;;;17.67;10.77;;;4.90;99.90;;;;;;4948865;28;20085;-46
2023/03/29 04:20:11;;;;;;;15.52;10.60;;;4.90;99.90;;;;;;4952398;29;20054;-44
2023/03/29 04:22:37;;;;;;;16.52;10.40;;;5.00;99.90;;;;;;4967434;28;20732;-45
2023/03/29 04:25:05;;;;;;;15.57;9.98;;;2.10;99.90;;;;;;4952261;29;20114;-45
2023/03/29 04:27:31;;;;;;;15.45;10.18;;;5.00;99.90;;;;;;4951663;28;20054;-46
2023/03/29 04:29:57;;;;;;;13.63;10.07;;;5.00;99.90;;;;;;4951921;28;20047;-45
2023/03/29 04:32:22;;;;;;;15.35;10.18;;;4.80;99.90;;;;;;4951923;28;20069;-44
2023/03/29 04:34:48;;;;;;;14.30;9.30;;;5.00;99.90;;;;;;4951897;28;20043;-44
2023/03/29 04:37:15;;;;;;;16.35;9.70;;;4.80;99.90;;;;;;4952206;29;20102;-44
2023/03/29 04:39:41;;;;;;;14.48;9.25;;;5.70;99.90;;;;;;4951921;28;20051;-45
2023/03/29 04:42:08;;;;;;;17.70;9.73;;;4.90;99.90;;;;;;4951785;28;20134;-46
2023/03/29 04:44:34;;;;;;;15.50;9.40;;;4.90;99.90;;;;;;4950803;28;20063;-45
2023/03/29 04:47:00;;;;;;;15.60;10.45;;;5.00;99.90;;;;;;4951083;29;20075;-44
2023/03/29 04:49:26;;;;;;;16.50;10.45;;;4.90;99.90;;;;;;4951844;29;20393;-46
2023/03/29 04:51:53;;;;;;;15.50;9.75;;;4.90;99.90;;;;;;4951311;29;20040;-45
2023/03/29 04:54:18;;;;;;;15.32;9.55;;;4.80;99.90;;;;;;4951406;28;20436;-46
2023/03/29 04:56:44;;;;;;;17.50;10.63;;;5.10;99.90;;;;;;4951442;29;20146;-44
2023/03/29 04:59:10;;;;;;;15.23;9.48;;;5.00;99.90;;;;;;4951596;28;20070;-45
2023/03/29 05:01:35;;;;;;;13.15;9.57;;;4.90;99.90;;;;;;4951687;29;20716;-47
2023/03/29 05:04:02;;;;;;;14.90;10.05;;;4.90;99.90;;;;;;4951453;29;20470;-45
2023/03/29 05:06:28;;;;;;;15.35;9.32;;;5.00;99.90;;;;;;4951147;28;20490;-44
2023/03/29 05:08:54;;;;;;;15.43;10.23;;;4.90;99.90;;;;;;4951435;28;20054;-45
2023/03/29 05:11:20;;;;;;;19.70;10.75;;;6.30;99.90;;;;;;4951188;28;20541;-44
2023/03/29 05:13:45;;;;;;;16.92;9.63;;;5.10;99.90;;;;;;4951130;28;20486;-44
2023/03/29 05:16:11;;;;;;;18.33;10.60;;;5.70;99.90;;;;;;4950651;28;20066;-44
2023/03/29 05:18:37;;;;;;;15.85;9.85;;;6.70;99.90;;;;;;4951187;28;20055;-44
2023/03/29 05:21:03;;;;;;;17.85;10.07;;;6.20;99.90;;;;;;4951335;28;20050;-45
2023/03/29 05:23:29;;;;;;;16.48;9.70;;;5.10;99.90;;;;;;4951149;28;20051;-44
2023/03/29 05:25:55;;;;;;;18.10;10.57;;;5.00;99.90;;;;;;4965694;28;20688;-44
2023/03/29 05:28:21;;;;;;;16.25;10.95;;;5.10;99.90;;;;;;4951141;28;20058;-45
2023/03/29 05:30:57;;;;;;;16.42;10.35;;;6.30;99.90;;;;;;4950235;28;20114;-48
2023/03/29 05:33:23;;;;;;;17.85;11.07;;;5.10;99.90;;;;;;4950955;28;20530;-44
2023/03/29 05:36:00;;;;;;;17.30;10.07;;;6.30;99.90;;;;;;4951060;28;20051;-44
2023/03/29 05:38:26;;;;;;;18.15;10.63;;;5.00;99.90;;;;;;4951535;29;20043;-45
2023/03/29 05:40:52;;;;;;;15.15;11.18;;;5.00;99.90;;;;;;4950611;29;20051;-45
2023/03/29 05:43:17;;;;;;;16.05;11.32;;;5.00;99.90;;;;;;4951172;29;20058;-44
2023/03/29 05:45:43;;;;;;;13.00;10.35;;;5.10;99.90;;;;;;4950579;28;20059;-44
2023/03/29 05:48:09;;;;;;;18.08;11.60;;;5.10;99.90;;;;;;4949594;28;20051;-44
2023/03/29 05:50:36;;;;;;;16.45;10.63;;;5.30;99.90;;;;;;4950689;28;20054;-44
2023/03/29 05:53:02;;;;;;;18.67;11.73;;;5.10;99.90;;;;;;4950424;28;20083;-45
2023/03/29 05:55:28;;;;;;;14.70;10.18;;;5.30;99.90;;;;;;4950288;28;20362;-44
2023/03/29 05:57:54;;;;;;;16.85;11.43;;;5.80;99.90;;;;;;4950558;28;20050;-46
2023/03/29 06:00:24;;;;;;;17.95;12.05;;;5.20;99.90;;;;;;4950659;28;20035;-45
2023/03/29 06:02:55;;;;;;;19.30;11.70;;;5.30;99.90;;;;;;4950863;28;20051;-45
2023/03/29 06:05:21;;;;;;;21.17;11.70;;;5.30;99.90;;;;;;4950710;28;20406;-45
2023/03/29 06:07:50;;;;;;;17.02;11.15;;;5.10;99.90;;;;;;4950829;28;20047;-45
2023/03/29 06:10:16;;;;;;;19.90;13.60;;;5.20;99.90;;;;;;4950667;29;20141;-45
2023/03/29 06:12:42;;;;;;;19.85;12.73;;;5.30;99.90;;;;;;4950594;28;20058;-45
2023/03/29 06:15:09;;;;;;;24.25;12.80;;;5.10;99.90;;;;;;4950602;28;20073;-45
2023/03/29 06:17:35;;;;;;;17.67;12.02;;;5.30;99.90;;;;;;4949585;28;20513;-46
2023/03/29 06:20:03;;;;;;;20.05;12.52;;;6.60;99.90;;;;;;4950135;28;20051;-47
2023/03/29 06:22:29;;;;;;;21.58;13.65;;;5.10;99.90;;;;;;4950122;28;20051;-43
2023/03/29 06:24:54;;;;;;;19.05;13.63;;;5.10;99.90;;;;;;4950057;28;20049;-44
2023/03/29 06:27:20;;;;;;;24.05;13.85;;;5.20;99.90;;;;;;4949633;29;20044;-44
2023/03/29 06:29:46;;;;;;;24.95;13.80;;;5.20;99.90;;;;;;4950305;28;20047;-44
2023/03/29 06:32:12;;;;;;;21.25;13.73;;;5.20;99.90;;;;;;4949880;28;20102;-45
2023/03/29 06:34:38;;;;;;;23.77;13.90;;;5.20;99.90;;;;;;4950128;28;20047;-45
2023/03/29 06:37:04;;;;;;;22.15;14.85;;;5.70;99.90;;;;;;4950063;28;20397;-47
2023/03/29 06:39:30;;;;;;;22.30;14.40;;;5.10;99.90;;;;;;4950368;28;20055;-44
2023/03/29 06:41:55;;;;;;;19.67;14.05;;;5.20;99.90;;;;;;4950596;28;20047;-44
2023/03/29 06:44:21;;;;;;;22.52;15.25;;;6.50;99.90;;;;;;4950505;28;20047;-46
2023/03/29 06:46:47;;;;;;;20.13;13.50;;;5.30;99.90;;;;;;4950060;28;20055;-45
2023/03/29 06:49:12;;;;;;;22.05;14.48;;;5.30;99.90;;;;;;4950540;28;20051;-44
2023/03/29 06:51:39;;;;;;;24.85;15.25;;;5.30;99.90;;;;;;4950602;28;20760;-43
2023/03/29 06:54:06;;;;;;;22.67;14.10;;;6.80;99.90;;;;;;4950236;28;20043;-44
2023/03/29 06:56:33;;;;;;;21.35;14.60;;;6.80;99.90;;;;;;4950216;28;20611;-46
2023/03/29 06:58:58;;;;;;;25.35;15.40;;;5.60;99.90;;;;;;4949912;28;20061;-46
2023/03/29 07:01:24;;;;;;;17.70;13.82;;;5.50;99.90;;;;;;4950016;28;20047;-45
2023/03/29 07:03:50;;;;;;;23.33;13.85;;;5.60;99.90;;;;;;4950354;28;20072;-45
2023/03/29 07:06:19;;;;;;;19.55;14.57;;;5.50;99.90;;;;;;4949402;29;20397;-44
2023/03/29 07:08:48;;;;;;;21.85;14.75;;;5.60;99.90;;;;;;4950209;28;20039;-45
2023/03/29 07:11:15;;;;;;;19.63;14.40;;;6.10;99.90;;;;;;4948809;28;20051;-46
2023/03/29 07:13:41;;;;;;;22.95;13.75;;;5.60;99.90;;;;;;4948990;28;20047;-46
2023/03/29 07:16:11;;;;;;;20.27;13.48;;;5.70;99.90;;;;;;4947962;28;20656;-45
2023/03/29 07:18:38;;;;;;;21.23;13.65;;;5.80;99.90;;;;;;4948467;28;20043;-45
2023/03/29 07:21:05;;;;;;;24.95;15.38;;;5.90;99.90;;;;;;4947331;28;20401;-45
2023/03/29 07:23:30;;;;;;;20.25;12.52;;;6.10;99.90;;;;;;4947973;28;20051;-46
2023/03/29 07:25:56;;;;;;;18.27;12.95;;;7.50;99.90;;;;;;4948145;29;20087;-45
2023/03/29 07:28:22;;;;;;;18.58;11.70;;;6.20;99.90;;;;;;4948729;28;20082;-45
2023/03/29 07:30:48;;;;;;;18.83;11.90;;;6.40;99.90;;;;;;4948437;28;20130;-46
2023/03/29 07:33:14;;;;;;;19.17;11.57;;;7.60;99.90;;;;;;4948285;28;20031;-45
2023/03/29 07:35:42;;;;;;;17.42;11.73;;;7.10;99.90;;;;;;4948177;28;20107;-46
2023/03/29 07:38:08;;;;;;;17.48;12.02;;;6.20;99.90;;;;;;4947701;28;20055;-46
2023/03/29 07:40:34;;;;;;;17.50;10.73;;;6.40;99.90;;;;;;4947789;28;20050;-47
2023/03/29 07:43:01;;;;;;;20.55;11.02;;;6.20;99.90;;;;;;4947989;28;20614;-45
2023/03/29 07:45:30;;;;;;;16.67;11.00;;;6.30;99.90;;;;;;4946889;28;20074;-45
2023/03/29 07:47:57;;;;;;;20.15;12.57;;;7.60;99.90;;;;;;4948328;28;20150;-45
2023/03/29 07:50:24;;;;;;;17.20;10.82;;;6.60;99.90;;;;;;4948631;28;20483;-46
2023/03/29 07:52:50;;;;;;;20.10;10.90;;;6.60;99.90;;;;;;4948740;28;20035;-45
2023/03/29 07:55:15;;;;;;;16.67;10.82;;;6.50;99.90;;;;;;4948524;28;20329;-46
2023/03/29 07:57:43;;;;;;;16.08;10.77;;;6.80;99.90;;;;;;4948601;28;20035;-44
2023/03/29 08:00:19;;;;;;;18.40;9.70;;;6.70;99.90;;;;;;4948879;28;20051;-45
2023/03/29 08:02:48;;;;;;;15.63;9.50;;;7.00;99.90;;;;;;4948712;28;20039;-47
2023/03/29 08:05:16;;;;;;;14.68;9.60;;;7.50;99.90;;;;;;4948094;28;20043;-46
2023/03/29 08:07:43;;;;;;;13.57;9.38;;;8.50;99.90;;;;;;4949105;28;20057;-46
2023/03/29 08:10:19;;;;;;;14.60;10.38;;;7.30;99.90;;;;;;4948901;28;20039;-46
2023/03/29 08:12:47;;;;;;;14.98;9.60;;;7.50;99.90;;;;;;4949103;29;20043;-46
2023/03/29 08:15:13;;;;;;;15.27;9.60;;;7.80;99.90;;;;;;4948599;29;20071;-47
2023/03/29 08:17:39;;;;;;;13.88;9.80;;;7.30;99.90;;;;;;4948580;29;20049;-45
2023/03/29 08:20:09;;;;;;;18.70;9.93;;;8.10;99.90;;;;;;4948811;28;20487;-47
2023/03/29 08:22:35;;;;;;;12.60;8.65;;;7.40;99.90;;;;;;4948673;28;20673;-46
2023/03/29 08:25:01;;;;;;;15.55;9.10;;;7.40;99.90;;;;;;4948363;29;20039;-46
2023/03/29 08:27:27;;;;;;;10.93;8.75;;;8.30;99.90;;;;;;4947901;28;20152;-46
2023/03/29 08:29:53;;;;;;;14.35;8.73;;;7.40;99.90;;;;;;4948140;29;20050;-47
2023/03/29 08:32:19;;;;;;;12.93;8.57;;;7.50;99.90;;;;;;4948194;28;20043;-46
2023/03/29 08:34:45;;;;;;;12.23;8.38;;;7.60;99.90;;;;;;4948121;29;20043;-47
2023/03/29 08:37:11;;;;;;;15.55;8.30;;;7.60;99.90;;;;;;4949020;28;20039;-48
2023/03/29 08:39:37;;;;;;;14.60;8.65;;;8.40;99.90;;;;;;4948270;29;20556;-49
2023/03/29 08:42:12;;;;;;;12.90;7.93;;;7.80;99.90;;;;;;4963680;28;20055;-46
2023/03/29 08:44:58;;;;;;;16.02;8.02;;;7.80;99.90;;;;;;4946666;29;20363;-47
2023/03/29 08:47:49;;;;;;;12.93;8.13;;;8.90;99.90;;;;;;4947804;28;20059;-47
2023/03/29 08:50:17;;;;;;;14.05;7.65;;;8.00;99.90;;;;;;4948347;28;20051;-46
2023/03/29 08:52:51;;;;;;;13.20;7.60;;;8.20;99.90;;;;;;4947798;28;20118;-49
2023/03/29 08:55:37;;;;;;;10.77;7.43;;;8.30;99.90;;;;;;4948052;28;20047;-46
2023/03/29 08:58:07;;;;;;;9.75;6.85;;;8.60;99.90;;;;;;4947683;28;20661;-47
2023/03/29 09:01:10;;;;;;;11.35;6.30;;;8.70;99.90;;;;;;4947987;28;20117;-47
2023/03/29 09:03:52;;;;;;;10.98;7.30;;;9.30;99.90;;;;;;4983260;28;20125;-47
2023/03/29 09:06:19;;;;;;;;;;;9.40;99.90;;;;;;4953849;28;20059;-47
2023/03/29 09:08:47;;;;;;;12.73;7.50;;;9.70;99.90;;;;;;4951448;28;19926;-46
2023/03/29 09:11:22;;;;;;;10.60;6.60;;;10.10;99.90;;;;;;4951710;28;20054;-46
2023/03/29 09:14:03;;;;;;;9.77;5.95;;;10.60;99.90;;;;;;4951250;29;20395;-49
2023/03/29 09:16:51;;;;;;;7.88;6.20;;;10.70;99.90;;;;;;4951510;29;20129;-47
2023/03/29 09:19:55;;;;;;;9.52;5.43;;;11.00;99.90;;;;;;4955531;28;20067;-43
2023/03/29 09:22:42;;;;;;;9.43;6.03;;;10.50;99.90;;;;;;4957604;28;20065;-49
2023/03/29 09:25:51;;;;;;;8.55;5.88;;;10.50;99.90;;;;;;4946790;28;20083;-48
2023/03/29 09:28:34;;;;;;;10.40;6.05;;;10.40;99.90;;;;;;4947345;28;20525;-48
2023/03/29 09:31:18;;;;;;;8.05;6.35;;;10.90;99.90;;;;;;4947940;28;20158;-49
2023/03/29 09:33:56;;;;;;;9.98;5.80;;;11.10;99.90;;;;;;4936852;28;20051;-55
2023/03/29 09:36:42;;;;;;;9.98;6.25;;;11.20;99.90;;;;;;4957599;28;20067;-50
2023/03/29 09:39:12;;;;;;;9.23;5.68;;;11.30;99.90;;;;;;4945427;28;20081;-50
2023/03/29 09:41:45;;;;;;;8.63;5.88;;;11.80;99.90;;;;;;4961326;28;20146;-50
2023/03/29 09:44:21;;;;;;;8.45;5.18;;;11.50;99.90;;;;;;4960373;28;20094;-55
2023/03/29 09:46:58;;;;;;;9.45;5.65;;;11.50;99.90;;;;;;4951209;28;20055;-55
2023/03/29 09:49:28;;;;;;;7.55;5.15;;;11.50;99.90;;;;;;4950900;28;20122;-53
2023/03/29 09:51:59;;;;;;;8.60;6.25;;;11.60;99.90;;;;;;4944308;28;20043;-53
2023/03/29 09:54:25;;;;;;;10.60;5.80;;;11.70;99.90;;;;;;4959967;28;20110;-57
2023/03/29 09:56:51;;;;;;;11.02;6.43;;;11.80;99.90;;;;;;4944442;28;20042;-57
2023/03/29 09:59:17;;;;;;;8.52;6.20;;;11.80;99.90;;;;;;4944143;28;20414;-50
2023/03/29 10:01:46;;;;;;;9.73;5.10;;;11.70;99.90;;;;;;4945156;28;20078;-46
2023/03/29 10:04:15;;;;;;;9.82;6.15;;;11.90;99.90;;;;;;4945505;28;20058;-54
2023/03/29 10:06:50;;;;;;;12.75;6.25;;;11.60;99.90;;;;;;4945913;28;20061;-51
2023/03/29 10:09:20;;;;;;;10.80;6.70;;;11.30;99.90;;;;;;4945457;28;20097;-50
2023/03/29 10:12:00;;;;;;;10.20;5.90;;;11.00;99.90;;;;;;4944132;28;20551;-49
2023/03/29 10:14:37;;;;;;;10.80;5.95;;;11.30;99.90;;;;;;4943462;28;20055;-51
2023/03/29 10:17:10;;;;;;;12.20;6.28;;;11.60;99.90;;;;;;4945706;28;20047;-50
2023/03/29 10:19:36;;;;;;;8.82;5.85;;;11.50;99.90;;;;;;4924309;28;20134;-51
2023/03/29 10:22:12;;;;;;;9.80;6.22;;;11.60;99.90;;;;;;4941643;28;20137;-55
2023/03/29 10:24:38;;;;;;;14.48;6.28;;;11.80;99.90;;;;;;4942364;28;20101;-54
2023/03/29 10:27:08;;;;;;;10.63;6.47;;;11.70;99.90;;;;;;4943359;28;20478;-55
2023/03/29 10:29:42;;;;;;;9.82;6.15;;;11.70;99.90;;;;;;4957641;28;20046;-54
2023/03/29 10:32:22;;;;;;;11.20;6.55;;;11.70;99.90;;;;;;4945102;28;20047;-53
2023/03/29 10:34:50;;;;;;;12.88;6.57;;;11.70;99.90;;;;;;4934727;28;20401;-51
2023/03/29 10:37:18;;;;;;;11.40;7.75;;;11.60;99.90;;;;;;4946729;28;20093;-51
2023/03/29 10:39:45;;;;;;;16.83;7.45;;;12.40;99.90;;;;;;4947348;28;20043;-54
2023/03/29 10:42:18;;;;;;;10.38;6.95;;;11.60;99.90;;;;;;4947860;28;20130;-53
2023/03/29 10:44:56;;;;;;;13.00;8.07;;;11.70;99.90;;;;;;4947205;28;20063;-55
2023/03/29 10:47:22;;;;;;;13.63;7.55;;;11.60;99.90;;;;;;4947904;28;20047;-56
2023/03/29 10:49:55;;;;;;;13.25;7.25;;;11.60;99.90;;;;;;4962080;28;20110;-56
2023/03/29 10:52:21;;;;;;;12.15;7.63;;;11.50;99.90;;;;;;4947301;28;20103;-56
2023/03/29 10:54:49;;;;;;;16.55;8.13;;;11.60;99.90;;;;;;4947330;28;20046;-57
2023/03/29 10:57:43;;;;;;;13.88;7.53;;;12.20;99.90;;;;;;4947904;28;20110;-57
2023/03/29 11:00:31;;;;;;;10.90;7.70;;;11.90;99.90;;;;;;4946536;28;20106;-55
2023/03/29 11:03:13;;;;;;;13.88;8.75;;;12.10;99.90;;;;;;4961768;28;20062;-54
2023/03/29 11:06:01;;;;;;;;;;;12.40;99.90;;;;;;4946049;28;20849;-57
2023/03/29 11:09:09;;;;;;;14.65;7.20;;;12.70;99.90;;;;;;4945246;28;19918;-58
2023/03/29 11:11:55;;;;;;;11.75;7.60;;;13.00;99.90;;;;;;4946954;28;20058;-57
2023/03/29 11:14:38;;;;;;;11.23;7.78;;;13.30;99.90;;;;;;4946662;28;20050;-58
2023/03/29 11:17:27;;;;;;;11.35;7.28;;;15.40;99.90;;;;;;4946225;28;20158;-58
2023/03/29 11:20:20;;;;;;;10.82;7.80;;;13.60;99.90;;;;;;4925210;28;20154;-57
2023/03/29 11:22:59;;;;;;;;;;;13.90;99.90;;;;;;4953179;28;20073;-54
2023/03/29 11:25:36;;;;;;;12.50;7.93;;;14.20;99.90;;;;;;4944443;28;19919;-53
2023/03/29 11:28:20;;;;;;;10.32;7.50;;;14.50;99.90;;;;;;4959460;28;20513;-54
2023/03/29 11:30:51;;;;;;;12.15;7.38;;;14.70;99.90;;;;;;4959917;28;20078;-58
2023/03/29 11:33:45;;;;;;;10.20;6.90;;;14.80;99.90;;;;;;4948535;28;20459;-54
2023/03/29 11:36:15;;;;;;;9.40;7.40;;;14.90;99.90;;;;;;4946239;28;20561;-45
2023/03/29 11:39:12;;;;;;;10.60;7.60;;;15.30;99.90;;;;;;4960299;28;20051;-45
2023/03/29 11:41:41;;;;;;;8.65;6.40;;;15.00;99.90;;;;;;4944823;28;20051;-48
2023/03/29 11:44:21;;;;;;;7.75;6.25;;;15.00;99.90;;;;;;4943890;28;20047;-48
2023/03/29 11:47:01;;;;;;;9.57;6.57;;;15.00;99.90;;;;;;4945342;28;20046;-48
2023/03/29 11:49:39;;;;;;;10.45;6.80;;;15.00;99.90;;;;;;4960369;28;20055;-48
2023/03/29 11:52:17;;;;;;;9.77;6.07;;;15.00;99.90;;;;;;4945426;28;20043;-54
2023/03/29 11:55:01;;;;;;;7.60;6.30;;;14.80;99.90;;;;;;4960028;28;20047;-57
2023/03/29 11:57:55;;;;;;;8.70;5.80;;;14.70;99.90;;;;;;4960137;28;20389;-56
2023/03/29 12:00:24;;;;;;;9.25;6.72;;;14.70;99.90;;;;;;4944047;28;20051;-59
2023/03/29 12:03:05;;;;;;;10.32;6.28;;;14.70;99.90;;;;;;4960340;28;20489;-57
2023/03/29 12:05:46;;;;;;;8.20;5.63;;;14.80;99.90;;;;;;4943990;28;20055;-58
2023/03/29 12:08:21;;;;;;;7.43;5.70;;;14.80;99.90;;;;;;4960226;28;20069;-46
2023/03/29 12:10:50;;;;;;;6.75;4.93;;;14.80;99.90;;;;;;4945331;28;20043;-46
2023/03/29 12:13:23;;;;;;;7.18;5.50;;;14.80;99.90;;;;;;4959775;28;20047;-46
2023/03/29 12:16:17;;;;;;;9.85;5.85;;;14.80;99.90;;;;;;4960482;28;20043;-46
2023/03/29 12:18:47;;;;;;;5.65;4.80;;;14.80;99.90;;;;;;4961605;28;20087;-46
2023/03/29 12:21:20;;;;;;;8.30;5.18;;;15.00;99.90;;;;;;4939516;28;20540;-47
2023/03/29 12:23:46;;;;;;;7.22;5.28;;;15.00;99.90;;;;;;4943782;28;20051;-46
2023/03/29 12:27:03;;;;;;;6.88;4.90;;;14.90;99.90;;;;;;4960691;28;20062;-48
2023/03/29 12:30:01;;;;;;;9.40;4.70;;;14.90;99.90;;;;;;4965682;28;20057;-48
2023/03/29 12:32:51;;;;;;;6.65;4.13;;;14.90;99.90;;;;;;4945619;28;20043;-50
2023/03/29 12:35:25;;;;;;;6.68;4.70;;;15.00;99.90;;;;;;4945171;28;20058;-57
2023/03/29 12:38:23;;;;;;;7.97;4.95;;;15.20;99.90;;;;;;4943262;29;20039;-58
2023/03/29 12:41:02;;;;;;;6.78;5.03;;;15.40;99.90;;;;;;4963099;28;20474;-59
2023/03/29 12:43:30;;;;;;;6.47;4.28;;;15.50;99.90;;;;;;4948124;28;20118;-60
2023/03/29 12:46:17;;;;;;;8.63;4.28;;;15.50;99.90;;;;;;4948353;28;20055;-57
2023/03/29 12:48:45;;;;;;;6.00;4.47;;;15.50;99.90;;;;;;4947797;29;20073;-57
2023/03/29 12:51:17;;;;;;;6.70;4.88;;;15.40;99.90;;;;;;4948331;28;20050;-58
2023/03/29 12:53:52;;;;;;;8.90;4.65;;;15.40;99.90;;;;;;4963687;28;20489;-51
2023/03/29 12:56:22;;;;;;;7.07;4.68;;;15.40;99.90;;;;;;4948196;28;20071;-55
2023/03/29 12:59:06;;;;;;;7.25;4.35;;;15.40;99.90;;;;;;4946942;29;20042;-58
2023/03/29 13:01:35;;;;;;;5.95;4.15;;;15.50;99.90;;;;;;4948859;28;20274;-59
2023/03/29 13:04:32;;;;;;;6.40;3.90;;;15.40;99.90;;;;;;4946756;28;20464;-62
2023/03/29 13:07:03;;;;;;;5.68;3.92;;;15.40;99.90;;;;;;4947926;28;20130;-60
2023/03/29 13:09:47;;;;;;;5.88;4.57;;;15.40;99.90;;;;;;4948853;28;20094;-51